Sugar Grove Plane Crash: 2 Dead After...

Sugar Grove Plane Crash: 2 Dead After Small Plane Crashed Into ...

There are 1 comment on the The Huffington Post story from Jan 23, 2010, titled Sugar Grove Plane Crash: 2 Dead After Small Plane Crashed Into .... In it, The Huffington Post reports that:

Two people were killed tonight when a small plane crashed into a home in a subdivision near Waubonsee Community College in the far west suburb of Sugar Grove.

Join the discussion below, or Read more at The Huffington Post.

“Uzi Does It”

Since: Nov 08


#1 Jan 23, 2010
Output produced by METARs form (0423 UTC 24 January 2010)
found at

KARR 240152Z 13011KT 1 1/4SM BR OVC001 04/04 A2961 RMK AO2 SLP031 T00440044
KARR 240138Z 12010KT 1SM BR OVC001 04/04 A2961 RMK AO2
KARR 240052Z 14007KT 1/2SM FG VV001 04/04 A2963 RMK AO2 SLP040 T00390039
KARR 232352Z 13009KT 1/4SM FG VV001 03/03 A2963 RMK AO2 SLP040 T00330033 10033 20028 55011

Tell me when this thread is updated:

Subscribe Now Add to my Tracker

Add your comments below

Characters left: 4000

Please note by submitting this form you acknowledge that you have read the Terms of Service and the comment you are posting is in compliance with such terms. Be polite. Inappropriate posts may be removed by the moderator. Send us your feedback.

Sugar Grove Discussions

Title Updated Last By Comments
Discraced trustee David Schlaker arrested for dui 11 hr Jeff Lawson 9
Montgomery Windshield repair and Auto glass re... Oct 14 wanye 2
Review: iLoveKickboxing - Aurora (Feb '15) Oct 13 Erin L 49
News Former U.S. House Speaker Hastert indicted on f... (May '15) Oct 13 In traffic we cheat 70
friend Oct 12 coco 1
News Dennis Hastert expected to plead guilty Wednesd... (Oct '15) Oct 11 Randee Cabbage Se... 6
East Aurora Community Members! Oct 8 jarevalo113 1

Sugar Grove Jobs

More from around the web

Personal Finance

Sugar Grove Mortgages